sensor_id;sensor_type;location;lat;lon;timestamp;P1;P2;P0
27143;PMS1003;14672;50.250;8.312;2023-07-29T00:01:01;9.33;9.00;4.00
27143;PMS1003;14672;50.250;8.312;2023-07-29T00:03:27;10.00;10.00;5.00
27143;PMS1003;14672;50.250;8.312;2023-07-29T00:05:55;11.25;11.00;5.75
27143;PMS1003;14672;50.250;8.312;2023-07-29T00:08:21;10.67;10.67;6.00
27143;PMS1003;14672;50.250;8.312;2023-07-29T00:10:46;13.67;12.33;6.67
27143;PMS1003;14672;50.250;8.312;2023-07-29T00:13:12;13.33;13.00;6.00
27143;PMS1003;14672;50.250;8.312;2023-07-29T00:15:38;13.00;12.67;5.33
27143;PMS1003;14672;50.250;8.312;2023-07-29T00:18:03;9.33;9.00;5.00
27143;PMS1003;14672;50.250;8.312;2023-07-29T00:20:29;13.00;11.33;5.00
27143;PMS1003;14672;50.250;8.312;2023-07-29T00:22:55;12.33;11.33;6.00
27143;PMS1003;14672;50.250;8.312;2023-07-29T00:25:22;12.00;10.75;5.75
27143;PMS1003;14672;50.250;8.312;2023-07-29T00:27:50;10.50;10.50;5.00
27143;PMS1003;14672;50.250;8.312;2023-07-29T00:30:16;13.33;13.33;6.00
27143;PMS1003;14672;50.250;8.312;2023-07-29T00:32:42;11.33;11.33;5.00
27143;PMS1003;14672;50.250;8.312;2023-07-29T00:35:08;12.33;12.33;6.00
27143;PMS1003;14672;50.250;8.312;2023-07-29T00:37:33;13.50;13.25;6.25
27143;PMS1003;14672;50.250;8.312;2023-07-29T00:39:59;11.33;11.33;6.00
27143;PMS1003;14672;50.250;8.312;2023-07-29T00:42:25;11.00;11.00;5.00
27143;PMS1003;14672;50.250;8.312;2023-07-29T00:44:54;14.25;11.75;5.50
27143;PMS1003;14672;50.250;8.312;2023-07-29T00:47:19;13.33;13.33;6.00
27143;PMS1003;14672;50.250;8.312;2023-07-29T00:49:47;11.00;11.00;5.25
27143;PMS1003;14672;50.250;8.312;2023-07-29T00:52:13;13.50;12.50;7.00
27143;PMS1003;14672;50.250;8.312;2023-07-29T00:54:39;11.33;11.33;6.00
27143;PMS1003;14672;50.250;8.312;2023-07-29T00:57:06;13.25;12.75;6.00
27143;PMS1003;14672;50.250;8.312;2023-07-29T00:59:35;14.75;13.75;5.00
27143;PMS1003;14672;50.250;8.312;2023-07-29T01:02:02;10.00;10.00;6.00
27143;PMS1003;14672;50.250;8.312;2023-07-29T01:04:28;10.50;10.50;6.25
27143;PMS1003;14672;50.250;8.312;2023-07-29T01:07:56;10.00;10.00;5.00
27143;PMS1003;14672;50.250;8.312;2023-07-29T01:10:35;11.75;11.75;5.25
27143;PMS1003;14672;50.250;8.312;2023-07-29T01:16:01;9.75;9.75;4.25
27143;PMS1003;14672;50.250;8.312;2023-07-29T01:18:40;12.25;12.25;6.00
27143;PMS1003;14672;50.250;8.312;2023-07-29T01:21:08;11.75;10.50;5.00
27143;PMS1003;14672;50.250;8.312;2023-07-29T01:23:39;13.00;13.00;6.00
27143;PMS1003;14672;50.250;8.312;2023-07-29T01:26:05;14.67;14.67;7.00
27143;PMS1003;14672;50.250;8.312;2023-07-29T01:28:30;14.67;14.00;7.00
27143;PMS1003;14672;50.250;8.312;2023-07-29T01:30:58;16.50;15.00;7.25
27143;PMS1003;14672;50.250;8.312;2023-07-29T01:33:47;16.25;14.75;6.50
27143;PMS1003;14672;50.250;8.312;2023-07-29T01:36:21;14.75;14.25;7.50
27143;PMS1003;14672;50.250;8.312;2023-07-29T01:38:52;14.25;14.00;7.00
27143;PMS1003;14672;50.250;8.312;2023-07-29T01:41:19;15.75;15.75;7.75
27143;PMS1003;14672;50.250;8.312;2023-07-29T01:43:46;14.50;13.75;6.25
27143;PMS1003;14672;50.250;8.312;2023-07-29T01:46:13;12.67;12.67;6.00
27143;PMS1003;14672;50.250;8.312;2023-07-29T01:48:39;12.75;12.75;8.75
27143;PMS1003;14672;50.250;8.312;2023-07-29T01:51:06;12.75;12.75;5.75
27143;PMS1003;14672;50.250;8.312;2023-07-29T01:53:32;12.75;12.75;6.00
27143;PMS1003;14672;50.250;8.312;2023-07-29T01:55:58;14.33;14.33;6.00
27143;PMS1003;14672;50.250;8.312;2023-07-29T01:58:24;13.00;13.00;5.00
27143;PMS1003;14672;50.250;8.312;2023-07-29T02:00:50;13.00;13.00;7.33
27143;PMS1003;14672;50.250;8.312;2023-07-29T02:03:16;13.00;13.00;7.33
27143;PMS1003;14672;50.250;8.312;2023-07-29T02:05:42;15.75;14.00;5.75
27143;PMS1003;14672;50.250;8.312;2023-07-29T02:08:09;10.25;10.25;5.00
27143;PMS1003;14672;50.250;8.312;2023-07-29T02:10:35;13.50;12.25;5.00
27143;PMS1003;14672;50.250;8.312;2023-07-29T02:13:02;11.50;11.50;5.50
27143;PMS1003;14672;50.250;8.312;2023-07-29T02:15:29;11.75;11.75;6.00
27143;PMS1003;14672;50.250;8.312;2023-07-29T02:17:54;14.67;14.67;6.00
27143;PMS1003;14672;50.250;8.312;2023-07-29T02:20:20;13.25;13.25;7.75
27143;PMS1003;14672;50.250;8.312;2023-07-29T02:22:46;15.00;15.00;6.00
27143;PMS1003;14672;50.250;8.312;2023-07-29T02:25:13;14.00;14.00;6.25
27143;PMS1003;14672;50.250;8.312;2023-07-29T02:27:40;14.00;13.25;6.00
27143;PMS1003;14672;50.250;8.312;2023-07-29T02:30:05;13.00;13.00;6.00
27143;PMS1003;14672;50.250;8.312;2023-07-29T02:32:34;19.25;19.25;9.75
27143;PMS1003;14672;50.250;8.312;2023-07-29T02:35:00;15.00;14.00;6.00
27143;PMS1003;14672;50.250;8.312;2023-07-29T02:37:26;16.67;16.00;6.00
27143;PMS1003;14672;50.250;8.312;2023-07-29T02:39:52;17.67;16.67;8.00
27143;PMS1003;14672;50.250;8.312;2023-07-29T02:42:17;14.00;14.00;6.00
27143;PMS1003;14672;50.250;8.312;2023-07-29T02:44:49;16.50;15.75;6.25
27143;PMS1003;14672;50.250;8.312;2023-07-29T02:47:15;17.00;17.00;8.33
27143;PMS1003;14672;50.250;8.312;2023-07-29T02:49:40;18.00;17.67;9.00
27143;PMS1003;14672;50.250;8.312;2023-07-29T02:52:06;16.67;16.67;8.67
27143;PMS1003;14672;50.250;8.312;2023-07-29T02:54:32;17.00;17.00;9.00
27143;PMS1003;14672;50.250;8.312;2023-07-29T02:56:57;17.67;17.67;9.00
27143;PMS1003;14672;50.250;8.312;2023-07-29T02:59:23;19.67;19.67;9.33
27143;PMS1003;14672;50.250;8.312;2023-07-29T03:01:49;17.75;17.25;9.00
27143;PMS1003;14672;50.250;8.312;2023-07-29T03:04:15;16.00;16.00;8.00
27143;PMS1003;14672;50.250;8.312;2023-07-29T03:06:41;19.33;19.00;8.33
27143;PMS1003;14672;50.250;8.312;2023-07-29T03:09:07;15.00;15.00;6.25
27143;PMS1003;14672;50.250;8.312;2023-07-29T03:11:32;18.00;17.00;9.00
27143;PMS1003;14672;50.250;8.312;2023-07-29T03:13:58;15.33;14.67;8.00
27143;PMS1003;14672;50.250;8.312;2023-07-29T03:16:24;16.00;16.00;8.33
27143;PMS1003;14672;50.250;8.312;2023-07-29T03:18:49;15.67;15.67;8.00
27143;PMS1003;14672;50.250;8.312;2023-07-29T03:21:15;14.67;14.67;8.33
27143;PMS1003;14672;50.250;8.312;2023-07-29T03:23:41;15.00;15.00;8.00
27143;PMS1003;14672;50.250;8.312;2023-07-29T03:26:07;13.33;13.00;6.00
27143;PMS1003;14672;50.250;8.312;2023-07-29T03:28:36;15.00;14.25;6.00
27143;PMS1003;14672;50.250;8.312;2023-07-29T03:31:04;17.25;15.50;7.50
27143;PMS1003;14672;50.250;8.312;2023-07-29T03:33:30;15.00;15.00;6.00
27143;PMS1003;14672;50.250;8.312;2023-07-29T03:35:56;13.33;13.33;4.67
27143;PMS1003;14672;50.250;8.312;2023-07-29T03:38:22;11.33;11.33;5.00
27143;PMS1003;14672;50.250;8.312;2023-07-29T03:40:48;12.00;12.00;5.33
27143;PMS1003;14672;50.250;8.312;2023-07-29T03:43:13;10.67;10.67;5.00
27143;PMS1003;14672;50.250;8.312;2023-07-29T03:45:39;17.00;16.67;8.67
27143;PMS1003;14672;50.250;8.312;2023-07-29T03:48:05;10.00;10.00;4.50
27143;PMS1003;14672;50.250;8.312;2023-07-29T03:50:33;10.00;10.00;5.50
27143;PMS1003;14672;50.250;8.312;2023-07-29T03:53:01;11.75;11.75;5.25
27143;PMS1003;14672;50.250;8.312;2023-07-29T03:55:28;10.00;10.00;4.75
27143;PMS1003;14672;50.250;8.312;2023-07-29T03:57:59;12.75;12.75;5.00
27143;PMS1003;14672;50.250;8.312;2023-07-29T04:00:25;10.00;10.00;4.00
27143;PMS1003;14672;50.250;8.312;2023-07-29T04:02:52;11.25;11.25;6.25
27143;PMS1003;14672;50.250;8.312;2023-07-29T04:05:18;13.50;11.75;5.00
27143;PMS1003;14672;50.250;8.312;2023-07-29T04:07:44;10.00;9.50;5.00
27143;PMS1003;14672;50.250;8.312;2023-07-29T04:10:10;9.00;9.00;4.00
27143;PMS1003;14672;50.250;8.312;2023-07-29T04:12:36;9.00;9.00;4.67
27143;PMS1003;14672;50.250;8.312;2023-07-29T04:15:02;9.67;9.00;4.00
27143;PMS1003;14672;50.250;8.312;2023-07-29T04:17:34;9.00;9.00;5.00
27143;PMS1003;14672;50.250;8.312;2023-07-29T04:19:59;10.00;9.33;4.33
27143;PMS1003;14672;50.250;8.312;2023-07-29T04:22:25;8.00;8.00;3.67
27143;PMS1003;14672;50.250;8.312;2023-07-29T04:24:51;8.33;8.33;4.00
27143;PMS1003;14672;50.250;8.312;2023-07-29T04:27:16;9.00;9.00;4.33
27143;PMS1003;14672;50.250;8.312;2023-07-29T04:29:42;8.33;8.33;3.67
27143;PMS1003;14672;50.250;8.312;2023-07-29T04:32:08;13.00;12.33;4.00
27143;PMS1003;14672;50.250;8.312;2023-07-29T04:34:34;9.00;9.00;4.00
27143;PMS1003;14672;50.250;8.312;2023-07-29T04:36:59;11.33;9.33;5.00
27143;PMS1003;14672;50.250;8.312;2023-07-29T04:39:25;9.00;9.00;4.67
27143;PMS1003;14672;50.250;8.312;2023-07-29T04:41:51;11.00;10.75;4.50
27143;PMS1003;14672;50.250;8.312;2023-07-29T04:44:17;8.00;8.00;3.33
27143;PMS1003;14672;50.250;8.312;2023-07-29T04:46:43;9.00;9.00;4.00
27143;PMS1003;14672;50.250;8.312;2023-07-29T04:49:09;11.00;10.00;4.33
27143;PMS1003;14672;50.250;8.312;2023-07-29T04:51:34;10.00;10.00;5.00
27143;PMS1003;14672;50.250;8.312;2023-07-29T04:54:02;10.25;10.25;5.25
27143;PMS1003;14672;50.250;8.312;2023-07-29T04:56:27;11.67;11.67;5.00
27143;PMS1003;14672;50.250;8.312;2023-07-29T04:58:53;10.00;9.00;5.00
27143;PMS1003;14672;50.250;8.312;2023-07-29T05:01:19;12.00;12.00;5.00
27143;PMS1003;14672;50.250;8.312;2023-07-29T05:03:45;11.67;11.67;5.00
27143;PMS1003;14672;50.250;8.312;2023-07-29T05:06:10;10.00;10.00;5.00
27143;PMS1003;14672;50.250;8.312;2023-07-29T05:08:36;12.00;12.00;5.33
27143;PMS1003;14672;50.250;8.312;2023-07-29T05:11:05;10.00;10.00;5.25
27143;PMS1003;14672;50.250;8.312;2023-07-29T05:13:30;10.00;10.00;5.00
27143;PMS1003;14672;50.250;8.312;2023-07-29T05:15:56;9.00;9.00;4.00
27143;PMS1003;14672;50.250;8.312;2023-07-29T05:18:22;10.00;9.33;4.00
27143;PMS1003;14672;50.250;8.312;2023-07-29T05:20:48;11.75;11.00;5.00
27143;PMS1003;14672;50.250;8.312;2023-07-29T05:23:14;10.33;10.00;5.67
27143;PMS1003;14672;50.250;8.312;2023-07-29T05:25:39;12.33;12.33;5.00
27143;PMS1003;14672;50.250;8.312;2023-07-29T05:28:05;11.00;11.00;5.00
27143;PMS1003;14672;50.250;8.312;2023-07-29T05:30:32;10.33;10.33;5.33
27143;PMS1003;14672;50.250;8.312;2023-07-29T05:32:59;9.25;9.00;3.00
27143;PMS1003;14672;50.250;8.312;2023-07-29T05:35:25;9.00;9.00;5.00
27143;PMS1003;14672;50.250;8.312;2023-07-29T05:37:51;11.33;10.00;5.33
27143;PMS1003;14672;50.250;8.312;2023-07-29T05:40:17;10.67;10.67;5.67
27143;PMS1003;14672;50.250;8.312;2023-07-29T05:42:43;10.00;10.00;6.00
27143;PMS1003;14672;50.250;8.312;2023-07-29T05:45:13;9.25;9.25;3.75
27143;PMS1003;14672;50.250;8.312;2023-07-29T05:47:38;11.00;10.00;5.00
27143;PMS1003;14672;50.250;8.312;2023-07-29T05:50:04;9.00;9.00;4.33
27143;PMS1003;14672;50.250;8.312;2023-07-29T05:52:31;10.75;10.75;5.00
27143;PMS1003;14672;50.250;8.312;2023-07-29T05:54:57;11.00;11.00;6.00
27143;PMS1003;14672;50.250;8.312;2023-07-29T05:57:24;12.33;11.00;5.00
27143;PMS1003;14672;50.250;8.312;2023-07-29T05:59:49;9.50;9.50;5.00
27143;PMS1003;14672;50.250;8.312;2023-07-29T06:02:15;9.00;9.00;3.00
27143;PMS1003;14672;50.250;8.312;2023-07-29T06:04:41;11.00;11.00;4.33
27143;PMS1003;14672;50.250;8.312;2023-07-29T06:07:07;10.33;9.67;5.00
27143;PMS1003;14672;50.250;8.312;2023-07-29T06:09:33;9.00;9.00;4.50
27143;PMS1003;14672;50.250;8.312;2023-07-29T06:11:58;9.67;9.67;5.00
27143;PMS1003;14672;50.250;8.312;2023-07-29T06:14:24;9.33;9.33;2.67
27143;PMS1003;14672;50.250;8.312;2023-07-29T06:16:51;13.00;12.00;6.00
27143;PMS1003;14672;50.250;8.312;2023-07-29T06:19:17;10.00;10.00;5.00
27143;PMS1003;14672;50.250;8.312;2023-07-29T06:21:44;9.75;9.75;5.75
27143;PMS1003;14672;50.250;8.312;2023-07-29T06:24:10;11.00;11.00;5.00
27143;PMS1003;14672;50.250;8.312;2023-07-29T06:26:36;11.00;11.00;5.33
27143;PMS1003;14672;50.250;8.312;2023-07-29T06:29:02;9.67;9.67;4.67
27143;PMS1003;14672;50.250;8.312;2023-07-29T06:31:27;11.00;11.00;3.33
27143;PMS1003;14672;50.250;8.312;2023-07-29T06:33:54;9.00;9.00;5.00
27143;PMS1003;14672;50.250;8.312;2023-07-29T06:36:20;10.25;10.25;5.00
27143;PMS1003;14672;50.250;8.312;2023-07-29T06:38:46;11.00;11.00;5.67
27143;PMS1003;14672;50.250;8.312;2023-07-29T06:41:12;10.00;10.00;5.00
27143;PMS1003;14672;50.250;8.312;2023-07-29T06:43:38;10.00;10.00;5.00
27143;PMS1003;14672;50.250;8.312;2023-07-29T06:46:03;10.33;10.33;5.33
27143;PMS1003;14672;50.250;8.312;2023-07-29T06:48:29;10.67;10.00;5.33
27143;PMS1003;14672;50.250;8.312;2023-07-29T06:50:55;14.33;13.33;6.33
27143;PMS1003;14672;50.250;8.312;2023-07-29T06:53:25;14.00;14.00;5.75
27143;PMS1003;14672;50.250;8.312;2023-07-29T06:55:54;12.50;12.50;5.50
27143;PMS1003;14672;50.250;8.312;2023-07-29T06:58:20;10.00;10.00;5.00
27143;PMS1003;14672;50.250;8.312;2023-07-29T07:00:46;12.00;12.00;5.50
27143;PMS1003;14672;50.250;8.312;2023-07-29T07:03:12;12.33;11.67;5.00
27143;PMS1003;14672;50.250;8.312;2023-07-29T07:05:38;12.67;12.67;6.00
27143;PMS1003;14672;50.250;8.312;2023-07-29T07:08:03;11.00;11.00;5.33
27143;PMS1003;14672;50.250;8.312;2023-07-29T07:10:29;10.00;10.00;4.33
27143;PMS1003;14672;50.250;8.312;2023-07-29T07:12:55;10.00;9.33;3.00
27143;PMS1003;14672;50.250;8.312;2023-07-29T07:15:21;10.00;10.00;5.00
27143;PMS1003;14672;50.250;8.312;2023-07-29T07:17:46;9.00;8.67;3.33
27143;PMS1003;14672;50.250;8.312;2023-07-29T07:20:12;10.33;10.00;5.00
27143;PMS1003;14672;50.250;8.312;2023-07-29T07:22:38;10.00;10.00;3.00
27143;PMS1003;14672;50.250;8.312;2023-07-29T07:25:04;10.25;10.25;5.00
27143;PMS1003;14672;50.250;8.312;2023-07-29T07:27:30;12.00;12.00;6.25
27143;PMS1003;14672;50.250;8.312;2023-07-29T07:29:56;10.33;10.33;6.00
27143;PMS1003;14672;50.250;8.312;2023-07-29T07:32:21;8.33;8.33;5.00
27143;PMS1003;14672;50.250;8.312;2023-07-29T07:34:47;14.00;13.33;6.00
27143;PMS1003;14672;50.250;8.312;2023-07-29T07:37:13;12.67;12.67;5.67
27143;PMS1003;14672;50.250;8.312;2023-07-29T07:39:39;10.67;9.33;5.00
27143;PMS1003;14672;50.250;8.312;2023-07-29T07:42:05;9.33;9.33;3.67
27143;PMS1003;14672;50.250;8.312;2023-07-29T07:44:31;10.00;10.00;5.00
27143;PMS1003;14672;50.250;8.312;2023-07-29T07:46:56;9.67;9.67;3.00
27143;PMS1003;14672;50.250;8.312;2023-07-29T07:49:25;10.00;10.00;5.00
27143;PMS1003;14672;50.250;8.312;2023-07-29T07:51:51;9.33;9.33;3.00
27143;PMS1003;14672;50.250;8.312;2023-07-29T07:54:17;7.00;7.00;3.00
27143;PMS1003;14672;50.250;8.312;2023-07-29T07:56:43;8.33;8.33;3.00
27143;PMS1003;14672;50.250;8.312;2023-07-29T07:59:09;8.00;8.00;3.00
27143;PMS1003;14672;50.250;8.312;2023-07-29T08:01:35;11.00;10.67;5.00
27143;PMS1003;14672;50.250;8.312;2023-07-29T08:04:02;8.50;8.50;3.00
27143;PMS1003;14672;50.250;8.312;2023-07-29T08:06:29;9.25;9.25;4.00
27143;PMS1003;14672;50.250;8.312;2023-07-29T08:08:55;7.00;7.00;2.00
27143;PMS1003;14672;50.250;8.312;2023-07-29T08:11:21;7.00;7.00;3.00
27143;PMS1003;14672;50.250;8.312;2023-07-29T08:13:48;7.00;7.00;3.00
27143;PMS1003;14672;50.250;8.312;2023-07-29T08:16:13;7.00;7.00;3.00
27143;PMS1003;14672;50.250;8.312;2023-07-29T08:18:39;8.50;8.50;4.00
27143;PMS1003;14672;50.250;8.312;2023-07-29T08:21:05;8.00;8.00;3.00
27143;PMS1003;14672;50.250;8.312;2023-07-29T08:23:37;7.00;7.00;3.00
27143;PMS1003;14672;50.250;8.312;2023-07-29T08:26:04;7.00;7.00;2.67
27143;PMS1003;14672;50.250;8.312;2023-07-29T08:28:32;8.00;8.00;3.00
27143;PMS1003;14672;50.250;8.312;2023-07-29T08:31:07;7.50;7.50;3.00
27143;PMS1003;14672;50.250;8.312;2023-07-29T08:33:33;7.00;7.00;3.00
27143;PMS1003;14672;50.250;8.312;2023-07-29T08:35:59;7.00;7.00;3.00
27143;PMS1003;14672;50.250;8.312;2023-07-29T08:38:26;7.50;7.50;3.00
27143;PMS1003;14672;50.250;8.312;2023-07-29T08:46:37;8.00;8.00;4.75
27143;PMS1003;14672;50.250;8.312;2023-07-29T08:49:05;7.25;7.25;3.25
27143;PMS1003;14672;50.250;8.312;2023-07-29T08:51:31;7.25;7.25;3.25
27143;PMS1003;14672;50.250;8.312;2023-07-29T08:53:58;8.25;8.00;3.00
27143;PMS1003;14672;50.250;8.312;2023-07-29T08:56:24;10.50;8.50;3.50
27143;PMS1003;14672;50.250;8.312;2023-07-29T08:58:51;11.00;10.00;5.00
27143;PMS1003;14672;50.250;8.312;2023-07-29T09:01:17;9.75;9.75;4.75
27143;PMS1003;14672;50.250;8.312;2023-07-29T09:03:43;7.00;7.00;3.00
27143;PMS1003;14672;50.250;8.312;2023-07-29T09:06:09;7.33;7.33;3.00
27143;PMS1003;14672;50.250;8.312;2023-07-29T09:08:35;8.00;7.50;3.50
27143;PMS1003;14672;50.250;8.312;2023-07-29T09:11:01;7.00;7.00;2.75
27143;PMS1003;14672;50.250;8.312;2023-07-29T09:13:28;8.25;8.25;4.00
27143;PMS1003;14672;50.250;8.312;2023-07-29T09:15:54;9.00;8.00;3.33
27143;PMS1003;14672;50.250;8.312;2023-07-29T09:18:22;8.25;8.25;4.00
27143;PMS1003;14672;50.250;8.312;2023-07-29T09:20:50;7.75;7.75;3.75
27143;PMS1003;14672;50.250;8.312;2023-07-29T09:23:17;9.25;8.75;3.00
27143;PMS1003;14672;50.250;8.312;2023-07-29T09:25:42;7.00;7.00;3.00
27143;PMS1003;14672;50.250;8.312;2023-07-29T09:28:12;8.00;8.00;3.00
27143;PMS1003;14672;50.250;8.312;2023-07-29T09:30:41;7.00;7.00;2.75
27143;PMS1003;14672;50.250;8.312;2023-07-29T09:33:11;7.00;7.00;2.00
27143;PMS1003;14672;50.250;8.312;2023-07-29T09:35:37;6.00;6.00;2.00
27143;PMS1003;14672;50.250;8.312;2023-07-29T09:38:06;7.67;7.67;3.00
27143;PMS1003;14672;50.250;8.312;2023-07-29T09:40:36;4.25;4.25;2.00
27143;PMS1003;14672;50.250;8.312;2023-07-29T09:43:04;6.25;6.00;2.00
27143;PMS1003;14672;50.250;8.312;2023-07-29T09:45:33;7.00;7.00;2.25
27143;PMS1003;14672;50.250;8.312;2023-07-29T09:48:02;8.00;8.00;3.00
27143;PMS1003;14672;50.250;8.312;2023-07-29T09:50:35;6.00;6.00;2.75
27143;PMS1003;14672;50.250;8.312;2023-07-29T09:53:01;7.00;6.25;2.00
27143;PMS1003;14672;50.250;8.312;2023-07-29T09:55:28;7.25;7.25;2.00
27143;PMS1003;14672;50.250;8.312;2023-07-29T09:57:58;7.00;7.00;3.00
27143;PMS1003;14672;50.250;8.312;2023-07-29T10:00:28;6.75;6.75;3.00
27143;PMS1003;14672;50.250;8.312;2023-07-29T10:02:55;5.50;5.50;2.00
27143;PMS1003;14672;50.250;8.312;2023-07-29T10:05:25;8.00;8.00;3.00
27143;PMS1003;14672;50.250;8.312;2023-07-29T10:07:52;6.50;6.50;2.50
27143;PMS1003;14672;50.250;8.312;2023-07-29T10:10:19;8.00;8.00;3.00
27143;PMS1003;14672;50.250;8.312;2023-07-29T10:12:49;6.50;6.50;3.00
27143;PMS1003;14672;50.250;8.312;2023-07-29T10:15:15;7.00;7.00;3.25
27143;PMS1003;14672;50.250;8.312;2023-07-29T10:17:42;7.75;7.00;3.00
27143;PMS1003;14672;50.250;8.312;2023-07-29T10:20:10;9.00;9.00;4.00
27143;PMS1003;14672;50.250;8.312;2023-07-29T10:22:37;10.75;10.50;4.00
27143;PMS1003;14672;50.250;8.312;2023-07-29T10:25:09;7.00;7.00;3.00
27143;PMS1003;14672;50.250;8.312;2023-07-29T10:27:53;8.50;8.50;3.50
27143;PMS1003;14672;50.250;8.312;2023-07-29T10:30:26;8.25;8.25;4.00
27143;PMS1003;14672;50.250;8.312;2023-07-29T10:32:53;7.25;7.25;3.75
27143;PMS1003;14672;50.250;8.312;2023-07-29T10:35:30;8.75;8.75;3.50
27143;PMS1003;14672;50.250;8.312;2023-07-29T10:37:58;9.00;9.00;4.50
27143;PMS1003;14672;50.250;8.312;2023-07-29T10:40:25;8.50;8.50;4.00
27143;PMS1003;14672;50.250;8.312;2023-07-29T10:43:02;7.00;7.00;3.00
27143;PMS1003;14672;50.250;8.312;2023-07-29T10:45:37;8.00;8.00;4.00
27143;PMS1003;14672;50.250;8.312;2023-07-29T10:48:12;7.25;6.50;2.75
27143;PMS1003;14672;50.250;8.312;2023-07-29T10:53:58;7.00;7.00;3.00
27143;PMS1003;14672;50.250;8.312;2023-07-29T10:56:32;7.25;7.25;3.00
27143;PMS1003;14672;50.250;8.312;2023-07-29T11:01:40;8.25;8.25;4.00
27143;PMS1003;14672;50.250;8.312;2023-07-29T11:09:39;7.75;7.75;3.00
27143;PMS1003;14672;50.250;8.312;2023-07-29T11:12:33;8.75;8.75;4.50
27143;PMS1003;14672;50.250;8.312;2023-07-29T11:17:34;6.00;6.00;2.25
27143;PMS1003;14672;50.250;8.312;2023-07-29T11:20:25;9.75;9.00;5.50
27143;PMS1003;14672;50.250;8.312;2023-07-29T11:22:54;7.25;7.25;3.25
27143;PMS1003;14672;50.250;8.312;2023-07-29T11:25:23;7.25;7.25;3.25
27143;PMS1003;14672;50.250;8.312;2023-07-29T11:27:51;6.25;6.25;2.25
27143;PMS1003;14672;50.250;8.312;2023-07-29T11:30:19;7.00;7.00;3.00
27143;PMS1003;14672;50.250;8.312;2023-07-29T11:32:45;5.00;5.00;2.00
27143;PMS1003;14672;50.250;8.312;2023-07-29T11:35:15;8.50;8.50;3.00
27143;PMS1003;14672;50.250;8.312;2023-07-29T11:37:47;7.25;7.25;3.00
27143;PMS1003;14672;50.250;8.312;2023-07-29T11:40:18;7.00;7.00;3.00
27143;PMS1003;14672;50.250;8.312;2023-07-29T11:42:48;6.50;6.50;3.00
27143;PMS1003;14672;50.250;8.312;2023-07-29T11:45:16;7.25;7.25;2.00
27143;PMS1003;14672;50.250;8.312;2023-07-29T11:47:42;7.00;7.00;3.00
27143;PMS1003;14672;50.250;8.312;2023-07-29T11:50:09;7.67;7.00;2.00
27143;PMS1003;14672;50.250;8.312;2023-07-29T11:52:42;5.75;5.75;3.00
27143;PMS1003;14672;50.250;8.312;2023-07-29T11:55:11;4.50;4.50;2.00
27143;PMS1003;14672;50.250;8.312;2023-07-29T11:57:39;8.25;8.25;2.50
27143;PMS1003;14672;50.250;8.312;2023-07-29T12:00:07;7.75;7.75;3.75
27143;PMS1003;14672;50.250;8.312;2023-07-29T12:02:38;7.00;7.00;3.00
27143;PMS1003;14672;50.250;8.312;2023-07-29T12:05:09;5.00;5.00;2.00
27143;PMS1003;14672;50.250;8.312;2023-07-29T12:07:38;8.75;8.75;3.25
27143;PMS1003;14672;50.250;8.312;2023-07-29T12:10:04;7.00;6.00;2.50
27143;PMS1003;14672;50.250;8.312;2023-07-29T12:12:31;7.50;7.50;2.25
27143;PMS1003;14672;50.250;8.312;2023-07-29T12:14:57;9.00;8.00;3.00
27143;PMS1003;14672;50.250;8.312;2023-07-29T12:17:23;7.75;7.75;2.50
27143;PMS1003;14672;50.250;8.312;2023-07-29T12:19:49;7.33;7.33;2.67
27143;PMS1003;14672;50.250;8.312;2023-07-29T12:22:19;9.00;9.00;4.00
27143;PMS1003;14672;50.250;8.312;2023-07-29T12:24:47;6.00;6.00;2.50
27143;PMS1003;14672;50.250;8.312;2023-07-29T12:27:17;8.50;8.50;4.00
27143;PMS1003;14672;50.250;8.312;2023-07-29T12:29:43;7.00;7.00;2.00
27143;PMS1003;14672;50.250;8.312;2023-07-29T12:32:11;6.50;6.50;3.00
27143;PMS1003;14672;50.250;8.312;2023-07-29T12:34:38;7.75;7.75;2.75
27143;PMS1003;14672;50.250;8.312;2023-07-29T12:37:04;7.00;7.00;2.75
27143;PMS1003;14672;50.250;8.312;2023-07-29T12:39:32;8.25;8.25;3.00
27143;PMS1003;14672;50.250;8.312;2023-07-29T12:42:00;5.00;5.00;2.00
27143;PMS1003;14672;50.250;8.312;2023-07-29T12:44:32;9.00;9.00;4.00
27143;PMS1003;14672;50.250;8.312;2023-07-29T12:47:00;7.00;6.75;3.00
27143;PMS1003;14672;50.250;8.312;2023-07-29T12:49:30;7.00;7.00;3.00
27143;PMS1003;14672;50.250;8.312;2023-07-29T12:51:57;5.75;5.75;2.75
27143;PMS1003;14672;50.250;8.312;2023-07-29T12:54:24;8.00;8.00;3.00
27143;PMS1003;14672;50.250;8.312;2023-07-29T12:56:50;8.50;8.00;3.00
27143;PMS1003;14672;50.250;8.312;2023-07-29T12:59:17;7.00;7.00;3.00
27143;PMS1003;14672;50.250;8.312;2023-07-29T13:01:46;8.00;7.50;3.00
27143;PMS1003;14672;50.250;8.312;2023-07-29T13:04:11;7.33;7.33;3.00
27143;PMS1003;14672;50.250;8.312;2023-07-29T13:06:37;8.00;8.00;3.00
27143;PMS1003;14672;50.250;8.312;2023-07-29T13:09:03;7.00;6.00;3.00
27143;PMS1003;14672;50.250;8.312;2023-07-29T13:11:30;9.50;9.50;4.00
27143;PMS1003;14672;50.250;8.312;2023-07-29T13:13:57;8.00;6.75;2.75
27143;PMS1003;14672;50.250;8.312;2023-07-29T13:16:23;8.00;8.00;4.00
27143;PMS1003;14672;50.250;8.312;2023-07-29T13:18:49;7.00;7.00;3.00
27143;PMS1003;14672;50.250;8.312;2023-07-29T13:21:15;7.67;7.67;3.00
27143;PMS1003;14672;50.250;8.312;2023-07-29T13:23:41;8.00;8.00;4.00
27143;PMS1003;14672;50.250;8.312;2023-07-29T13:26:06;8.33;8.33;3.00
27143;PMS1003;14672;50.250;8.312;2023-07-29T13:28:32;7.33;6.67;2.67
27143;PMS1003;14672;50.250;8.312;2023-07-29T13:30:58;6.00;5.75;2.25
27143;PMS1003;14672;50.250;8.312;2023-07-29T13:33:24;6.33;6.33;3.00
27143;PMS1003;14672;50.250;8.312;2023-07-29T13:35:50;7.00;7.00;3.33
27143;PMS1003;14672;50.250;8.312;2023-07-29T13:38:15;8.00;8.00;4.00
27143;PMS1003;14672;50.250;8.312;2023-07-29T13:40:41;7.50;7.50;3.75
27143;PMS1003;14672;50.250;8.312;2023-07-29T13:43:07;5.75;5.75;2.00
27143;PMS1003;14672;50.250;8.312;2023-07-29T13:45:34;9.00;9.00;4.00
27143;PMS1003;14672;50.250;8.312;2023-07-29T13:48:00;6.00;6.00;3.00
27143;PMS1003;14672;50.250;8.312;2023-07-29T13:50:29;8.00;8.00;3.00
27143;PMS1003;14672;50.250;8.312;2023-07-29T13:52:55;6.00;6.00;3.00
27143;PMS1003;14672;50.250;8.312;2023-07-29T13:55:20;5.33;5.33;2.33
27143;PMS1003;14672;50.250;8.312;2023-07-29T13:57:46;6.00;6.00;3.00
27143;PMS1003;14672;50.250;8.312;2023-07-29T14:00:12;5.00;5.00;3.00
27143;PMS1003;14672;50.250;8.312;2023-07-29T14:02:39;6.00;6.00;3.00
27143;PMS1003;14672;50.250;8.312;2023-07-29T14:05:04;5.67;5.67;3.00
27143;PMS1003;14672;50.250;8.312;2023-07-29T14:07:35;6.00;6.00;3.00
27143;PMS1003;14672;50.250;8.312;2023-07-29T14:10:00;8.33;8.33;5.00
27143;PMS1003;14672;50.250;8.312;2023-07-29T14:12:26;5.33;5.33;3.00
27143;PMS1003;14672;50.250;8.312;2023-07-29T14:14:52;6.00;5.00;2.00
27143;PMS1003;14672;50.250;8.312;2023-07-29T14:17:18;5.33;5.33;2.00
27143;PMS1003;14672;50.250;8.312;2023-07-29T14:19:43;7.00;7.00;3.00
27143;PMS1003;14672;50.250;8.312;2023-07-29T14:22:12;6.00;6.00;3.00
27143;PMS1003;14672;50.250;8.312;2023-07-29T14:24:38;7.00;7.00;3.67
27143;PMS1003;14672;50.250;8.312;2023-07-29T14:27:04;6.00;6.00;3.00
27143;PMS1003;14672;50.250;8.312;2023-07-29T14:29:30;6.50;6.00;3.00
27143;PMS1003;14672;50.250;8.312;2023-07-29T14:31:56;6.00;6.00;3.00
27143;PMS1003;14672;50.250;8.312;2023-07-29T14:34:22;6.25;6.25;2.50